createdAt,value
2018-03-11T00:01:15.089Z,0
2018-03-11T00:02:29.705Z,0
2018-03-11T00:03:44.626Z,0
2018-03-11T00:04:59.029Z,0
2018-03-11T00:06:13.555Z,0
2018-03-11T00:07:28.811Z,0
2018-03-11T00:08:44.133Z,0
2018-03-11T00:09:59.082Z,0
2018-03-11T00:11:14.181Z,0
2018-03-11T00:12:28.548Z,0
2018-03-11T00:13:43.045Z,0
2018-03-11T00:14:57.984Z,0
2018-03-11T00:16:13.005Z,0
2018-03-11T00:17:27.858Z,0
2018-03-11T00:18:42.244Z,0
2018-03-11T00:19:57.100Z,0
2018-03-11T00:21:12.053Z,0
2018-03-11T00:22:27.047Z,0
2018-03-11T00:23:42.474Z,0
2018-03-11T00:24:56.891Z,0
2018-03-11T00:26:12.455Z,0
2018-03-11T00:27:27.431Z,0
2018-03-11T00:28:42.663Z,0
2018-03-11T00:29:57.310Z,0
2018-03-11T00:31:12.036Z,0
2018-03-11T00:32:41.306Z,0
2018-03-11T00:33:55.982Z,0
2018-03-11T00:35:10.358Z,0
2018-03-11T00:36:25.613Z,0
2018-03-11T00:37:41.177Z,0
2018-03-11T00:38:56.398Z,0
2018-03-11T00:40:11.615Z,0
2018-03-11T00:41:26.185Z,0
2018-03-11T00:42:40.168Z,0
2018-03-11T00:43:54.525Z,0
2018-03-11T00:45:09.384Z,0
2018-03-11T00:46:24.313Z,0
2018-03-11T00:47:38.935Z,0
2018-03-11T00:48:53.349Z,0
2018-03-11T00:50:08.518Z,0
2018-03-11T00:51:23.672Z,0
2018-03-11T00:52:38.794Z,0
2018-03-11T00:53:53.934Z,0
2018-03-11T00:55:09.138Z,0
2018-03-11T00:56:24.680Z,0
2018-03-11T00:57:40.161Z,0
2018-03-11T00:58:55.127Z,0
2018-03-11T01:00:09.539Z,0
2018-03-11T01:01:24.352Z,0
2018-03-11T01:02:39.798Z,0
2018-03-11T01:03:54.681Z,0
2018-03-11T01:05:10.011Z,0
2018-03-11T01:06:25.026Z,0
2018-03-11T01:07:39.443Z,0
2018-03-11T01:08:53.754Z,0
2018-03-11T01:10:08.953Z,0
2018-03-11T01:11:23.679Z,0
2018-03-11T01:12:38.878Z,0
2018-03-11T01:13:54.497Z,0
2018-03-11T01:15:09.531Z,0
2018-03-11T01:16:24.532Z,0
2018-03-11T01:17:38.303Z,0
2018-03-11T01:18:53.514Z,0
2018-03-11T01:20:07.959Z,0
2018-03-11T01:21:22.698Z,0
2018-03-11T01:22:37.322Z,0
2018-03-11T01:23:52.459Z,0
2018-03-11T01:25:06.790Z,0
2018-03-11T01:26:21.629Z,0
2018-03-11T01:27:36.221Z,0
2018-03-11T01:28:50.840Z,0
2018-03-11T01:30:05.823Z,0
2018-03-11T01:31:20.699Z,0
2018-03-11T01:32:36.075Z,0
2018-03-11T01:33:51.235Z,0
2018-03-11T01:35:06.010Z,0
2018-03-11T01:36:20.619Z,0
2018-03-11T01:37:36.552Z,0
2018-03-11T01:38:51.934Z,0
2018-03-11T01:40:06.268Z,0
2018-03-11T01:41:20.583Z,0
2018-03-11T01:42:35.373Z,0
2018-03-11T01:43:50.283Z,0
2018-03-11T01:45:04.974Z,0
2018-03-11T01:46:19.380Z,0
2018-03-11T01:47:34.760Z,0
2018-03-11T01:48:49.639Z,0
2018-03-11T01:50:04.290Z,0
2018-03-11T01:51:19.174Z,0
2018-03-11T01:52:34.083Z,0
2018-03-11T01:53:48.711Z,0
2018-03-11T01:55:02.765Z,0
2018-03-11T01:56:17.598Z,0
2018-03-11T01:57:31.673Z,0
2018-03-11T01:58:46.306Z,0
2018-03-11T02:00:02.815Z,0
2018-03-11T02:01:17.451Z,0
2018-03-11T02:04:02.149Z,0
2018-03-11T02:05:17.059Z,0
2018-03-11T02:06:31.940Z,0
2018-03-11T02:07:46.385Z,0
2018-03-11T02:09:01.248Z,0
2018-03-11T02:10:16.884Z,0
2018-03-11T02:11:32.516Z,0
2018-03-11T02:12:47.110Z,0
2018-03-11T02:14:01.191Z,0
2018-03-11T02:15:16.350Z,0
2018-03-11T02:16:31.581Z,0
2018-03-11T02:17:45.791Z,0
2018-03-11T02:19:00.916Z,0
2018-03-11T02:20:16.371Z,0
2018-03-11T02:21:31.225Z,0
2018-03-11T02:22:46.411Z,0
2018-03-11T02:24:01.880Z,0
2018-03-11T02:25:16.764Z,0
2018-03-11T02:26:31.050Z,0
2018-03-11T02:27:46.298Z,0
2018-03-11T02:29:01.454Z,0
2018-03-11T02:30:16.732Z,0
2018-03-11T02:31:32.043Z,0
2018-03-11T02:32:46.936Z,0
2018-03-11T02:34:01.559Z,0
2018-03-11T02:35:16.503Z,0
2018-03-11T02:36:32.176Z,0
2018-03-11T02:37:46.843Z,0
2018-03-11T02:39:01.768Z,0
2018-03-11T02:40:16.669Z,0
2018-03-11T02:41:30.970Z,0
2018-03-11T02:42:48.314Z,0
2018-03-11T02:44:03.218Z,0
2018-03-11T02:45:16.981Z,0
2018-03-11T02:46:31.591Z,0
2018-03-11T02:47:46.378Z,0
2018-03-11T02:49:01.048Z,0
2018-03-11T02:50:15.388Z,0
2018-03-11T02:55:19.428Z,0
2018-03-11T02:56:33.746Z,0
2018-03-11T02:57:48.895Z,0
2018-03-11T02:59:03.768Z,0
2018-03-11T03:00:18.655Z,0
2018-03-11T03:01:33.228Z,0
2018-03-11T03:02:47.809Z,0
2018-03-11T03:04:02.660Z,0
2018-03-11T03:05:17.531Z,0
2018-03-11T03:06:32.395Z,0
2018-03-11T03:07:47.638Z,0
2018-03-11T03:09:02.454Z,0
2018-03-11T03:10:17.061Z,0
2018-03-11T03:11:31.374Z,0
2018-03-11T03:12:46.809Z,0
2018-03-11T03:14:01.925Z,0
2018-03-11T03:15:30.102Z,0
2018-03-11T03:16:45.547Z,0
2018-03-11T03:18:00.671Z,0
2018-03-11T03:19:15.091Z,0
2018-03-11T03:20:29.702Z,0
2018-03-11T03:21:44.564Z,0
2018-03-11T03:23:00.000Z,0
2018-03-11T03:24:15.252Z,0
2018-03-11T03:25:30.161Z,0
2018-03-11T03:26:45.035Z,0
2018-03-11T03:27:59.909Z,0
2018-03-11T03:29:14.259Z,0
2018-03-11T03:30:33.648Z,0
2018-03-11T03:31:48.536Z,0
2018-03-11T03:33:03.396Z,0
2018-03-11T03:34:18.438Z,0
2018-03-11T03:35:33.600Z,0
2018-03-11T03:36:48.183Z,0
2018-03-11T03:38:02.791Z,0
2018-03-11T03:39:18.686Z,0
2018-03-11T03:40:35.060Z,0
2018-03-11T03:41:49.393Z,0
2018-03-11T03:43:04.020Z,0
2018-03-11T03:44:18.633Z,0
2018-03-11T03:45:33.230Z,0
2018-03-11T03:46:48.391Z,0
2018-03-11T03:48:58.384Z,0
2018-03-11T03:50:13.066Z,0
2018-03-11T03:51:27.686Z,0
2018-03-11T03:52:42.582Z,0
2018-03-11T03:53:57.452Z,0
2018-03-11T03:55:12.571Z,0
2018-03-11T03:56:27.015Z,0
2018-03-11T03:57:41.580Z,0
2018-03-11T03:58:56.453Z,0
2018-03-11T04:00:11.562Z,0
2018-03-11T04:01:26.873Z,0
2018-03-11T04:02:41.487Z,0
2018-03-11T04:03:56.840Z,0
2018-03-11T04:05:18.063Z,0
2018-03-11T04:06:33.244Z,0
2018-03-11T04:07:47.962Z,0
2018-03-11T04:09:02.869Z,0
2018-03-11T04:10:17.711Z,0
2018-03-11T04:11:32.588Z,0
2018-03-11T04:12:47.117Z,0
2018-03-11T04:14:02.156Z,0
2018-03-11T04:15:16.110Z,0
2018-03-11T04:16:31.520Z,0
2018-03-11T04:17:46.398Z,0
2018-03-11T04:19:01.002Z,0
2018-03-11T04:20:16.193Z,0
2018-03-11T04:21:30.819Z,0
2018-03-11T04:22:45.479Z,0
2018-03-11T04:23:59.838Z,0
2018-03-11T04:25:14.708Z,0
2018-03-11T04:26:29.979Z,0
2018-03-11T04:27:44.818Z,0
2018-03-11T04:28:59.703Z,0
2018-03-11T04:30:14.273Z,0
2018-03-11T04:31:28.859Z,0
2018-03-11T04:32:43.714Z,0
2018-03-11T04:33:58.843Z,0
2018-03-11T04:35:13.732Z,0
2018-03-11T04:36:28.357Z,0
2018-03-11T04:37:43.767Z,0
2018-03-11T04:39:18.429Z,0
2018-03-11T04:40:33.709Z,0
2018-03-11T04:41:49.145Z,0
2018-03-11T04:43:03.478Z,0
2018-03-11T04:44:18.109Z,0
2018-03-11T04:45:33.797Z,0
2018-03-11T04:46:48.378Z,0
2018-03-11T04:48:03.390Z,0
2018-03-11T04:49:17.434Z,0
2018-03-11T04:50:32.087Z,0
2018-03-11T04:51:47.776Z,0
2018-03-11T04:53:02.928Z,0
2018-03-11T04:54:17.707Z,0
2018-03-11T04:55:32.256Z,0
2018-03-11T04:56:46.576Z,0
2018-03-11T04:58:01.754Z,0
2018-03-11T04:59:16.642Z,0
2018-03-11T05:00:31.745Z,0
2018-03-11T05:01:46.102Z,0
2018-03-11T05:03:00.957Z,0
2018-03-11T05:04:16.004Z,0
2018-03-11T05:05:30.724Z,0
2018-03-11T05:06:45.872Z,0
2018-03-11T05:08:01.270Z,0
2018-03-11T05:09:15.615Z,0
2018-03-11T05:10:30.350Z,0
2018-03-11T05:11:45.542Z,0
2018-03-11T05:13:00.622Z,0
2018-03-11T05:14:14.894Z,0
2018-03-11T05:15:30.081Z,0
2018-03-11T05:16:44.975Z,0
2018-03-11T05:17:59.933Z,0
2018-03-11T05:19:14.791Z,0
2018-03-11T05:20:29.755Z,0
2018-03-11T05:21:44.730Z,0
2018-03-11T05:23:00.269Z,0
2018-03-11T05:24:28.287Z,0
2018-03-11T05:25:43.380Z,0
2018-03-11T05:26:59.083Z,0
2018-03-11T05:28:14.072Z,0
2018-03-11T05:29:28.717Z,0
2018-03-11T05:30:43.117Z,0
2018-03-11T05:31:57.984Z,0
2018-03-11T05:33:12.885Z,0
2018-03-11T05:34:27.964Z,0
2018-03-11T05:35:42.561Z,0
2018-03-11T05:36:57.174Z,0
2018-03-11T05:38:11.816Z,0
2018-03-11T05:39:25.866Z,0
2018-03-11T05:40:39.968Z,0
2018-03-11T05:41:55.148Z,0
2018-03-11T05:43:10.371Z,0
2018-03-11T05:44:25.317Z,0
2018-03-11T05:45:40.269Z,0
2018-03-11T05:46:55.560Z,0
2018-03-11T05:48:10.977Z,0
2018-03-11T05:49:26.116Z,0
2018-03-11T05:50:40.479Z,0
2018-03-11T05:51:55.046Z,0
2018-03-11T05:53:10.187Z,5
2018-03-11T05:54:25.318Z,5
2018-03-11T05:55:40.306Z,5
2018-03-11T05:56:55.148Z,5
2018-03-11T05:58:10.255Z,10
2018-03-11T05:59:35.528Z,10
2018-03-11T06:00:51.161Z,10
2018-03-11T06:02:06.344Z,10
2018-03-11T06:03:21.975Z,10
2018-03-11T06:04:36.919Z,10
2018-03-11T06:05:51.450Z,15
2018-03-11T06:07:06.047Z,15
2018-03-11T06:08:20.940Z,15
2018-03-11T06:09:35.864Z,20
2018-03-11T06:10:50.040Z,20
2018-03-11T06:12:05.085Z,25
2018-03-11T06:13:19.688Z,25
2018-03-11T06:14:34.242Z,25
2018-03-11T06:15:48.807Z,25
2018-03-11T06:17:03.752Z,30
2018-03-11T06:18:18.832Z,30
2018-03-11T06:19:33.729Z,30
2018-03-11T06:20:48.429Z,35
2018-03-11T06:22:03.230Z,35
2018-03-11T06:23:18.420Z,35
2018-03-11T06:24:32.754Z,40
2018-03-11T06:25:47.883Z,40
2018-03-11T06:27:02.455Z,40
2018-03-11T06:28:17.037Z,35
2018-03-11T06:29:32.673Z,35
2018-03-11T06:30:47.175Z,35
2018-03-11T06:32:51.841Z,35
2018-03-11T06:34:07.151Z,35
2018-03-11T06:35:21.003Z,35
2018-03-11T06:36:36.155Z,40
2018-03-11T06:37:50.760Z,40
2018-03-11T06:39:05.203Z,40
2018-03-11T06:40:20.338Z,45
2018-03-11T06:41:35.496Z,50
2018-03-11T06:42:50.658Z,55
2018-03-11T06:44:05.575Z,60
2018-03-11T06:45:19.906Z,60
2018-03-11T06:46:34.941Z,65
2018-03-11T06:47:50.115Z,60
2018-03-11T06:49:05.213Z,60
2018-03-11T06:50:20.340Z,60
2018-03-11T06:51:35.026Z,60
2018-03-11T06:52:49.879Z,60
2018-03-11T06:54:04.466Z,55
2018-03-11T06:55:19.151Z,60
2018-03-11T06:56:33.931Z,60
2018-03-11T06:57:48.747Z,65
2018-03-11T06:59:03.630Z,60
2018-03-11T07:00:18.888Z,60
2018-03-11T07:01:33.406Z,55
2018-03-11T07:02:47.763Z,60
2018-03-11T07:04:02.361Z,60
2018-03-11T07:05:31.935Z,60
2018-03-11T07:06:46.950Z,65
2018-03-11T07:08:01.150Z,65
2018-03-11T07:09:16.387Z,70
2018-03-11T07:10:31.325Z,70
2018-03-11T07:11:46.421Z,75
2018-03-11T07:13:01.320Z,75
2018-03-11T07:14:15.959Z,75
2018-03-11T07:15:30.284Z,80
2018-03-11T07:16:45.868Z,80
2018-03-11T07:18:00.698Z,80
2018-03-11T07:19:15.661Z,80
2018-03-11T07:20:30.291Z,80
2018-03-11T07:21:45.012Z,85
2018-03-11T07:22:59.640Z,85
2018-03-11T07:24:15.033Z,85
2018-03-11T07:25:30.007Z,85
2018-03-11T07:26:57.704Z,90
2018-03-11T07:28:12.800Z,95
2018-03-11T07:29:28.274Z,110
2018-03-11T07:30:42.814Z,100
2018-03-11T07:31:57.394Z,95
2018-03-11T07:33:12.284Z,90
2018-03-11T07:34:26.914Z,95
2018-03-11T07:35:41.320Z,95
2018-03-11T07:36:57.046Z,115
2018-03-11T07:38:12.042Z,125
2018-03-11T07:39:26.104Z,110
2018-03-11T07:40:41.378Z,110
2018-03-11T07:41:56.554Z,115
2018-03-11T07:43:11.647Z,115
2018-03-11T07:44:26.937Z,115
2018-03-11T07:45:41.562Z,120
2018-03-11T07:46:56.559Z,125
2018-03-11T07:48:10.348Z,125
2018-03-11T07:49:25.114Z,105
2018-03-11T07:50:40.229Z,100
2018-03-11T07:51:54.785Z,90
2018-03-11T07:53:09.844Z,85
2018-03-11T07:54:24.483Z,85
2018-03-11T07:55:38.571Z,85
2018-03-11T07:58:24.280Z,85
2018-03-11T07:59:38.611Z,80
2018-03-11T08:00:54.087Z,75
2018-03-11T08:02:09.371Z,65
2018-03-11T08:03:23.527Z,70
2018-03-11T08:04:37.787Z,80
2018-03-11T08:05:52.325Z,80
2018-03-11T08:07:07.340Z,85
2018-03-11T08:08:22.324Z,85
2018-03-11T08:09:37.434Z,90
2018-03-11T08:11:18.439Z,100
2018-03-11T08:12:33.372Z,105
2018-03-11T08:13:48.177Z,115
2018-03-11T08:15:03.116Z,125
2018-03-11T08:16:17.803Z,130
2018-03-11T08:17:32.237Z,115
2018-03-11T08:18:46.872Z,105
2018-03-11T08:20:01.578Z,110
2018-03-11T08:21:15.715Z,130
2018-03-11T08:22:31.307Z,135
2018-03-11T08:23:45.736Z,135
2018-03-11T08:25:00.410Z,145
2018-03-11T08:26:15.076Z,145
2018-03-11T08:27:30.673Z,140
2018-03-11T08:28:45.139Z,145
2018-03-11T08:30:00.069Z,145
2018-03-11T08:31:14.428Z,145
2018-03-11T08:32:30.257Z,135
2018-03-11T08:33:44.902Z,135
2018-03-11T08:35:00.122Z,140
2018-03-11T08:36:15.342Z,145
2018-03-11T08:37:30.389Z,140
2018-03-11T08:38:44.946Z,135
2018-03-11T08:40:00.364Z,135
2018-03-11T08:41:15.205Z,135
2018-03-11T08:42:30.489Z,130
2018-03-11T08:44:20.391Z,120
2018-03-11T08:45:35.296Z,130
2018-03-11T08:46:49.621Z,140
2018-03-11T08:48:04.765Z,145
2018-03-11T08:49:19.738Z,155
2018-03-11T08:50:34.440Z,160
2018-03-11T08:51:49.627Z,165
2018-03-11T08:53:04.207Z,165
2018-03-11T08:54:19.385Z,165
2018-03-11T08:55:33.200Z,165
2018-03-11T08:56:48.842Z,155
2018-03-11T08:58:04.006Z,155
2018-03-11T08:59:18.430Z,145
2018-03-11T09:00:34.303Z,140
2018-03-11T09:01:49.858Z,140
2018-03-11T09:03:05.380Z,135
2018-03-11T09:04:19.803Z,135
2018-03-11T09:05:34.162Z,135
2018-03-11T09:06:49.388Z,130
2018-03-11T09:08:04.598Z,135
2018-03-11T09:09:19.855Z,140
2018-03-11T09:10:34.930Z,145
2018-03-11T09:11:49.459Z,145
2018-03-11T09:13:04.779Z,150
2018-03-11T09:14:19.464Z,150
2018-03-11T09:15:34.253Z,160
2018-03-11T09:17:03.753Z,165
2018-03-11T09:18:19.357Z,170
2018-03-11T09:19:33.809Z,175
2018-03-11T09:20:49.125Z,175
2018-03-11T09:22:04.837Z,180
2018-03-11T09:23:20.918Z,175
2018-03-11T09:25:07.134Z,175
2018-03-11T09:26:22.203Z,165
2018-03-11T09:27:37.862Z,155
2018-03-11T09:29:06.716Z,155
2018-03-11T09:30:22.161Z,160
2018-03-11T09:31:37.274Z,145
2018-03-11T09:32:52.473Z,135
2018-03-11T09:34:08.169Z,130
2018-03-11T09:35:23.108Z,140
2018-03-11T09:36:38.492Z,155
2018-03-11T09:37:53.542Z,160
2018-03-11T09:39:37.430Z,175
2018-03-11T09:40:51.973Z,180
2018-03-11T09:42:06.429Z,185
2018-03-11T09:43:20.957Z,185
2018-03-11T09:44:36.203Z,185
2018-03-11T09:45:50.667Z,180
2018-03-11T09:47:04.806Z,175
2018-03-11T09:48:19.982Z,160
2018-03-11T09:49:58.156Z,140
2018-03-11T09:51:13.094Z,135
2018-03-11T09:52:28.490Z,135
2018-03-11T09:53:43.296Z,145
2018-03-11T09:54:57.749Z,135
2018-03-11T09:56:12.648Z,130
2018-03-11T09:57:27.940Z,140
2018-03-11T09:58:43.551Z,145
2018-03-11T09:59:59.221Z,130
2018-03-11T10:01:14.284Z,125
2018-03-11T10:02:29.822Z,125
2018-03-11T10:03:44.913Z,120
2018-03-11T10:04:59.889Z,110
2018-03-11T10:06:15.218Z,105
2018-03-11T10:07:30.168Z,110
2018-03-11T10:08:44.803Z,105
2018-03-11T10:10:14.675Z,90
2018-03-11T10:11:29.095Z,90
2018-03-11T10:12:43.912Z,90
2018-03-11T10:13:58.413Z,90
2018-03-11T10:15:13.610Z,90
2018-03-11T10:16:28.569Z,85
2018-03-11T10:17:43.797Z,80
2018-03-11T10:18:59.625Z,80
2018-03-11T10:20:14.982Z,80
2018-03-11T10:21:29.553Z,80
2018-03-11T10:22:43.900Z,75
2018-03-11T10:23:58.543Z,75
2018-03-11T10:25:28.425Z,80
2018-03-11T10:26:44.009Z,80
2018-03-11T10:27:59.361Z,85
2018-03-11T10:29:13.468Z,110
2018-03-11T10:30:27.740Z,130
2018-03-11T10:31:42.926Z,150
2018-03-11T10:32:57.322Z,165
2018-03-11T10:34:12.070Z,170
2018-03-11T10:35:27.498Z,175
2018-03-11T10:36:42.548Z,180
2018-03-11T10:37:56.846Z,175
2018-03-11T10:39:11.894Z,170
2018-03-11T10:40:26.755Z,180
2018-03-11T10:41:41.532Z,185
2018-03-11T10:42:56.683Z,185
2018-03-11T10:44:11.193Z,185
2018-03-11T10:45:26.815Z,175
2018-03-11T10:46:41.542Z,170
2018-03-11T10:47:57.025Z,170
2018-03-11T10:49:12.036Z,170
2018-03-11T10:51:13.802Z,170
2018-03-11T10:52:29.168Z,170
2018-03-11T10:53:44.309Z,160
2018-03-11T10:54:58.838Z,155
2018-03-11T10:56:13.770Z,155
2018-03-11T10:57:28.713Z,165
2018-03-11T10:58:43.095Z,170
2018-03-11T10:59:57.825Z,165
2018-03-11T11:01:13.274Z,160
2018-03-11T11:02:28.806Z,160
2018-03-11T11:03:44.028Z,165
2018-03-11T11:04:59.133Z,175
2018-03-11T11:06:13.663Z,175
2018-03-11T11:07:28.148Z,180
2018-03-11T11:08:42.486Z,185
2018-03-11T11:09:58.164Z,185
2018-03-11T11:11:12.828Z,185
2018-03-11T11:12:27.556Z,185
2018-03-11T11:13:43.069Z,185
2018-03-11T11:14:58.149Z,185
2018-03-11T11:16:14.023Z,185
2018-03-11T11:17:29.607Z,185
2018-03-11T11:18:44.124Z,185
2018-03-11T11:19:58.729Z,185
2018-03-11T11:21:14.807Z,185
2018-03-11T11:22:29.664Z,180
2018-03-11T11:23:44.055Z,175
2018-03-11T11:24:58.501Z,175
2018-03-11T11:26:13.912Z,165
2018-03-11T11:27:29.011Z,160
2018-03-11T11:28:43.787Z,155
2018-03-11T11:29:58.251Z,155
2018-03-11T11:31:13.493Z,160
2018-03-11T11:32:28.305Z,155
2018-03-11T11:33:43.670Z,150
2018-03-11T11:34:58.637Z,140
2018-03-11T11:36:13.637Z,130
2018-03-11T11:37:29.028Z,125
2018-03-11T11:38:43.948Z,130
2018-03-11T11:39:58.824Z,135
2018-03-11T11:41:14.485Z,145
2018-03-11T11:42:29.102Z,145
2018-03-11T11:43:43.943Z,145
2018-03-11T11:44:59.092Z,140
2018-03-11T11:46:14.756Z,140
2018-03-11T11:47:29.125Z,145
2018-03-11T11:48:43.780Z,155
2018-03-11T11:49:59.259Z,160
2018-03-11T11:51:14.478Z,165
2018-03-11T11:52:29.878Z,170
2018-03-11T11:53:44.894Z,185
2018-03-11T11:54:59.629Z,195
2018-03-11T11:56:14.015Z,200
2018-03-11T11:57:29.554Z,210
2018-03-11T11:58:44.829Z,205
2018-03-11T11:59:59.431Z,210
2018-03-11T12:01:32.738Z,205
2018-03-11T12:02:48.046Z,200
2018-03-11T12:04:02.191Z,190
2018-03-11T12:05:16.673Z,185
2018-03-11T12:06:32.002Z,175
2018-03-11T12:07:48.222Z,170
2018-03-11T12:09:02.948Z,175
2018-03-11T12:10:18.381Z,170
2018-03-11T12:11:33.460Z,170
2018-03-11T12:12:48.817Z,170
2018-03-11T12:14:04.304Z,165
2018-03-11T12:15:19.088Z,165
2018-03-11T12:16:34.991Z,165
2018-03-11T12:17:49.358Z,160
2018-03-11T12:19:04.070Z,145
2018-03-11T12:20:19.341Z,135
2018-03-11T12:21:33.917Z,140
2018-03-11T12:22:48.617Z,145
2018-03-11T12:24:03.330Z,155
2018-03-11T12:25:18.669Z,155
2018-03-11T12:26:34.001Z,155
2018-03-11T12:27:47.571Z,150
2018-03-11T12:29:02.707Z,140
2018-03-11T12:30:17.465Z,135
2018-03-11T12:31:32.115Z,130
2018-03-11T12:32:47.965Z,130
2018-03-11T12:34:03.402Z,135
2018-03-11T12:35:21.855Z,140
2018-03-11T12:36:36.817Z,150
2018-03-11T12:37:52.030Z,155
2018-03-11T12:39:07.314Z,155
2018-03-11T12:40:22.307Z,155
2018-03-11T12:41:37.270Z,155
2018-03-11T12:42:51.333Z,155
2018-03-11T12:44:06.670Z,155
2018-03-11T12:45:22.311Z,150
2018-03-11T12:46:37.660Z,145
2018-03-11T12:47:52.046Z,140
2018-03-11T12:49:07.157Z,130
2018-03-11T12:50:22.335Z,125
2018-03-11T12:51:37.311Z,125
2018-03-11T12:52:51.809Z,125
2018-03-11T12:54:07.022Z,130
2018-03-11T12:55:21.761Z,135
2018-03-11T12:56:37.041Z,135
2018-03-11T12:57:53.570Z,140
2018-03-11T12:59:09.006Z,140
2018-03-11T13:00:23.189Z,145
2018-03-11T13:01:38.199Z,140
2018-03-11T13:02:52.868Z,140
2018-03-11T13:04:07.766Z,145
2018-03-11T13:05:22.421Z,145
2018-03-11T13:07:14.037Z,150
2018-03-11T13:08:29.290Z,145
2018-03-11T13:09:44.787Z,145
2018-03-11T13:10:59.431Z,145
2018-03-11T13:12:14.250Z,140
2018-03-11T13:13:27.878Z,130
2018-03-11T13:14:42.862Z,135
2018-03-11T13:15:57.284Z,125
2018-03-11T13:17:12.632Z,125
2018-03-11T13:18:27.215Z,125
2018-03-11T13:19:42.234Z,125
2018-03-11T13:20:57.009Z,125
2018-03-11T13:22:11.493Z,130
2018-03-11T13:23:25.927Z,130
2018-03-11T13:24:40.421Z,130
2018-03-11T13:25:54.878Z,130
2018-03-11T13:27:10.293Z,130
2018-03-11T13:28:25.176Z,135
2018-03-11T13:29:39.826Z,140
2018-03-11T13:30:54.476Z,145
2018-03-11T13:32:09.409Z,150
2018-03-11T13:33:24.420Z,155
2018-03-11T13:34:39.803Z,165
2018-03-11T13:35:54.796Z,170
2018-03-11T13:37:09.909Z,175
2018-03-11T13:38:24.736Z,175
2018-03-11T13:39:39.499Z,175
2018-03-11T13:40:54.734Z,175
2018-03-11T13:42:09.506Z,170
2018-03-11T13:43:24.481Z,170
2018-03-11T13:44:39.561Z,170
2018-03-11T13:45:54.287Z,160
2018-03-11T13:47:09.137Z,160
2018-03-11T13:48:24.460Z,150
2018-03-11T13:49:39.912Z,150
2018-03-11T13:50:54.451Z,150
2018-03-11T13:52:09.781Z,155
2018-03-11T13:53:24.724Z,155
2018-03-11T13:54:39.538Z,155
2018-03-11T13:55:55.117Z,155
2018-03-11T13:57:10.740Z,155
2018-03-11T13:58:25.752Z,150
2018-03-11T13:59:40.965Z,145
2018-03-11T14:00:55.715Z,140
2018-03-11T14:02:10.807Z,135
2018-03-11T14:03:26.206Z,130
2018-03-11T14:04:40.638Z,130
2018-03-11T14:05:55.102Z,130
2018-03-11T14:07:10.166Z,130
2018-03-11T14:08:24.923Z,135
2018-03-11T14:09:39.401Z,135
2018-03-11T14:11:39.233Z,140
2018-03-11T14:13:15.822Z,140
2018-03-11T14:14:31.068Z,145
2018-03-11T14:15:45.888Z,145
2018-03-11T14:17:00.899Z,150
2018-03-11T14:18:16.745Z,155
2018-03-11T14:19:32.036Z,165
2018-03-11T14:20:47.582Z,160
2018-03-11T14:22:03.132Z,155
2018-03-11T14:23:18.089Z,160
2018-03-11T14:24:33.108Z,155
2018-03-11T14:25:48.429Z,150
2018-03-11T14:27:03.959Z,145
2018-03-11T14:28:18.503Z,135
2018-03-11T14:29:33.622Z,130
2018-03-11T14:30:48.686Z,130
2018-03-11T14:32:03.679Z,125
2018-03-11T14:33:18.571Z,125
2018-03-11T14:34:33.818Z,125
2018-03-11T14:35:48.176Z,125
2018-03-11T14:37:02.687Z,120
2018-03-11T14:38:17.517Z,115
2018-03-11T14:39:33.047Z,115
2018-03-11T14:40:47.686Z,115
2018-03-11T14:42:02.407Z,115
2018-03-11T14:43:17.415Z,115
2018-03-11T14:44:32.214Z,115
2018-03-11T14:45:48.013Z,115
2018-03-11T14:47:03.436Z,115
2018-03-11T14:48:18.633Z,115
2018-03-11T14:49:33.117Z,110
2018-03-11T14:50:48.587Z,105
2018-03-11T14:52:03.639Z,105
2018-03-11T14:53:18.438Z,100
2018-03-11T14:54:32.883Z,100
2018-03-11T14:55:48.007Z,95
2018-03-11T14:57:02.723Z,90
2018-03-11T14:58:17.328Z,85
2018-03-11T14:59:32.583Z,85
2018-03-11T15:00:47.918Z,80
2018-03-11T15:02:03.468Z,80
2018-03-11T15:03:18.833Z,75
2018-03-11T15:04:33.814Z,70
2018-03-11T15:05:48.540Z,70
2018-03-11T15:07:02.953Z,65
2018-03-11T15:08:19.307Z,60
2018-03-11T15:09:34.327Z,65
2018-03-11T15:10:48.804Z,65
2018-03-11T15:12:03.949Z,65
2018-03-11T15:13:18.771Z,60
2018-03-11T15:14:33.045Z,55
2018-03-11T15:15:48.302Z,55
2018-03-11T15:17:02.711Z,50
2018-03-11T15:18:18.355Z,50
2018-03-11T15:19:47.624Z,45
2018-03-11T15:21:02.848Z,45
2018-03-11T15:22:18.652Z,45
2018-03-11T15:23:33.631Z,45
2018-03-11T15:24:48.741Z,45
2018-03-11T15:26:03.813Z,45
2018-03-11T15:27:18.506Z,45
2018-03-11T15:28:33.326Z,45
2018-03-11T15:29:48.606Z,45
2018-03-11T15:31:03.650Z,50
2018-03-11T15:32:18.625Z,50
2018-03-11T15:33:33.611Z,45
2018-03-11T15:34:49.319Z,45
2018-03-11T15:36:04.307Z,45
2018-03-11T15:37:19.315Z,45
2018-03-11T15:38:33.161Z,45
2018-03-11T15:39:48.476Z,45
2018-03-11T15:41:02.709Z,45
2018-03-11T15:42:18.014Z,45
2018-03-11T15:43:32.794Z,45
2018-03-11T15:44:47.788Z,45
2018-03-11T15:46:03.397Z,45
2018-03-11T15:47:18.151Z,45
2018-03-11T15:48:32.588Z,45
2018-03-11T15:49:48.148Z,45
2018-03-11T15:51:03.398Z,50
2018-03-11T15:52:18.569Z,50
2018-03-11T15:53:33.081Z,50
2018-03-11T15:54:49.279Z,50
2018-03-11T15:56:04.088Z,50
2018-03-11T15:57:19.320Z,50
2018-03-11T15:58:34.058Z,50
2018-03-11T15:59:47.986Z,50
2018-03-11T16:01:02.427Z,50
2018-03-11T16:02:16.854Z,55
2018-03-11T16:03:31.415Z,55
2018-03-11T16:04:47.733Z,55
2018-03-11T16:06:02.440Z,55
2018-03-11T16:07:17.401Z,55
2018-03-11T16:08:32.414Z,50
2018-03-11T16:09:46.663Z,50
2018-03-11T16:11:01.681Z,50
2018-03-11T16:12:16.160Z,50
2018-03-11T16:13:31.212Z,50
2018-03-11T16:14:45.941Z,50
2018-03-11T16:16:01.229Z,45
2018-03-11T16:17:15.438Z,45
2018-03-11T16:18:36.200Z,45
2018-03-11T16:19:51.393Z,45
2018-03-11T16:21:06.257Z,45
2018-03-11T16:22:20.463Z,45
2018-03-11T16:23:35.633Z,40
2018-03-11T16:25:31.103Z,40
2018-03-11T16:26:46.416Z,40
2018-03-11T16:28:02.012Z,40
2018-03-11T16:29:17.382Z,40
2018-03-11T16:30:31.933Z,35
2018-03-11T16:31:46.374Z,35
2018-03-11T16:33:01.372Z,30
2018-03-11T16:34:16.288Z,30
2018-03-11T16:35:31.383Z,30
2018-03-11T16:36:46.567Z,25
2018-03-11T16:38:01.332Z,25
2018-03-11T16:39:16.680Z,25
2018-03-11T16:40:30.887Z,25
2018-03-11T16:41:46.040Z,25
2018-03-11T16:43:01.323Z,20
2018-03-11T16:44:16.084Z,20
2018-03-11T16:45:31.033Z,20
2018-03-11T16:46:45.733Z,20
2018-03-11T16:48:00.455Z,20
2018-03-11T16:49:14.905Z,20
2018-03-11T16:50:30.390Z,15
2018-03-11T16:51:45.649Z,15
2018-03-11T16:53:00.646Z,15
2018-03-11T16:54:15.611Z,15
2018-03-11T16:55:30.583Z,15
2018-03-11T16:56:46.216Z,15
2018-03-11T16:58:01.238Z,15
2018-03-11T16:59:16.328Z,15
2018-03-11T17:00:32.215Z,10
2018-03-11T17:01:46.941Z,10
2018-03-11T17:03:01.143Z,10
2018-03-11T17:04:15.937Z,10
2018-03-11T17:05:31.250Z,10
2018-03-11T17:06:45.733Z,10
2018-03-11T17:08:00.388Z,5
2018-03-11T17:09:14.850Z,5
2018-03-11T17:10:30.015Z,5
2018-03-11T17:11:44.939Z,5
2018-03-11T17:12:59.927Z,5
2018-03-11T17:14:14.153Z,5
2018-03-11T17:15:29.108Z,5
2018-03-11T17:16:43.450Z,5
2018-03-11T17:17:58.192Z,0
2018-03-11T17:19:12.632Z,0
2018-03-11T17:20:27.406Z,0
2018-03-11T17:21:41.753Z,0
2018-03-11T17:22:56.246Z,0
2018-03-11T17:24:11.331Z,0
2018-03-11T17:25:26.422Z,0
2018-03-11T17:26:41.690Z,0
2018-03-11T17:27:55.729Z,0
2018-03-11T17:29:11.885Z,0
2018-03-11T17:30:27.952Z,0
2018-03-11T17:31:46.624Z,0
2018-03-11T17:33:02.194Z,0
2018-03-11T17:34:16.888Z,0
2018-03-11T17:35:31.938Z,0
2018-03-11T17:36:47.054Z,0
2018-03-11T17:38:01.758Z,0
2018-03-11T17:39:16.177Z,0
2018-03-11T17:40:31.497Z,0
2018-03-11T17:41:45.736Z,0
2018-03-11T17:43:01.047Z,0
2018-03-11T17:44:16.038Z,0
2018-03-11T17:45:30.716Z,0
2018-03-11T17:46:46.399Z,0
2018-03-11T17:48:01.648Z,0
2018-03-11T17:49:17.089Z,0
2018-03-11T17:50:32.615Z,0
2018-03-11T17:51:46.975Z,0
2018-03-11T17:53:01.801Z,0
2018-03-11T17:54:17.059Z,0
2018-03-11T17:55:31.788Z,0
2018-03-11T17:56:47.094Z,0
2018-03-11T17:58:02.471Z,0
2018-03-11T17:59:16.870Z,0
2018-03-11T18:00:32.387Z,0
2018-03-11T18:01:47.740Z,0
2018-03-11T18:03:02.727Z,0
2018-03-11T18:04:18.414Z,0
2018-03-11T18:05:32.947Z,0
2018-03-11T18:06:47.996Z,0